createdAt,value
2022-07-27T00:00:15.963Z,37.60
2022-07-27T00:00:51.241Z,37.58
2022-07-27T00:01:23.630Z,37.65
2022-07-27T00:01:56.385Z,37.58
2022-07-27T00:02:31.426Z,37.79
2022-07-27T00:03:03.755Z,37.61
2022-07-27T00:03:38.730Z,37.62
2022-07-27T00:04:13.716Z,37.71
2022-07-27T00:04:46.203Z,37.54
2022-07-27T00:05:20.462Z,37.66
2022-07-27T00:05:55.488Z,37.32
2022-07-27T00:06:27.872Z,37.20
2022-07-27T00:07:02.809Z,37.42
2022-07-27T00:07:35.158Z,37.63
2022-07-27T00:08:11.966Z,37.58
2022-07-27T00:08:44.385Z,37.51
2022-07-27T00:09:19.765Z,37.96
2022-07-27T00:09:54.743Z,37.61
2022-07-27T00:10:27.698Z,37.33
2022-07-27T00:11:00.093Z,37.70
2022-07-27T00:11:35.083Z,37.79
2022-07-27T00:12:07.710Z,38.00
2022-07-27T00:12:40.107Z,37.77
2022-07-27T00:13:12.507Z,37.74
2022-07-27T00:13:48.090Z,37.95
2022-07-27T00:14:20.422Z,37.99
2022-07-27T00:14:52.723Z,37.62
2022-07-27T00:15:27.797Z,37.62
2022-07-27T00:16:00.228Z,37.80
2022-07-27T00:16:35.348Z,37.64
2022-07-27T00:17:07.886Z,37.49
2022-07-27T00:17:40.209Z,37.50
2022-07-27T00:18:15.126Z,37.55
2022-07-27T00:18:50.096Z,37.76
2022-07-27T00:19:25.736Z,37.70
2022-07-27T00:19:58.156Z,37.66
2022-07-27T00:20:32.280Z,37.98
2022-07-27T00:21:04.705Z,37.66
2022-07-27T00:21:44.525Z,37.46
2022-07-27T00:22:18.846Z,37.51
2022-07-27T00:22:51.206Z,37.65
2022-07-27T00:23:26.154Z,37.65
2022-07-27T00:23:58.487Z,37.58
2022-07-27T00:24:30.825Z,37.53
2022-07-27T00:25:05.819Z,37.58
2022-07-27T00:25:38.179Z,37.46
2022-07-27T00:26:10.543Z,37.51
2022-07-27T00:26:45.509Z,37.58
2022-07-27T00:27:17.847Z,37.56
2022-07-27T00:27:50.414Z,37.50
2022-07-27T00:28:25.339Z,37.45
2022-07-27T00:28:57.622Z,37.53
2022-07-27T00:29:30.008Z,37.60
2022-07-27T00:30:04.998Z,37.51
2022-07-27T00:30:37.523Z,37.66
2022-07-27T00:31:10.095Z,37.50
2022-07-27T00:31:45.204Z,37.88
2022-07-27T00:32:17.577Z,37.56
2022-07-27T00:32:49.953Z,37.49
2022-07-27T00:33:24.884Z,37.50
2022-07-27T00:33:59.826Z,37.15
2022-07-27T00:34:32.134Z,37.56
2022-07-27T00:35:07.731Z,37.67
2022-07-27T00:35:40.063Z,37.55
2022-07-27T00:36:12.823Z,37.47
2022-07-27T00:36:47.792Z,37.50
2022-07-27T00:37:20.362Z,37.48
2022-07-27T00:37:52.789Z,37.10
2022-07-27T00:38:27.894Z,37.52
2022-07-27T00:39:00.219Z,37.58
2022-07-27T00:39:32.575Z,37.71
2022-07-27T00:40:06.179Z,37.61
2022-07-27T00:40:41.127Z,37.59
2022-07-27T00:41:13.533Z,37.63
2022-07-27T00:41:46.007Z,37.88
2022-07-27T00:42:28.134Z,37.61
2022-07-27T00:43:00.475Z,37.63
2022-07-27T00:43:32.886Z,37.45
2022-07-27T00:44:08.391Z,37.54
2022-07-27T00:44:40.708Z,37.62
2022-07-27T00:45:13.418Z,37.21
2022-07-27T00:45:48.384Z,37.63
2022-07-27T00:46:20.834Z,37.61
2022-07-27T00:46:53.229Z,37.25
2022-07-27T00:47:28.359Z,37.21
2022-07-27T00:48:00.686Z,37.35
2022-07-27T00:48:33.098Z,37.25
2022-07-27T00:49:10.963Z,37.63
2022-07-27T00:49:43.546Z,37.45
2022-07-27T00:50:15.898Z,37.51
2022-07-27T00:50:51.139Z,37.56
2022-07-27T00:51:23.986Z,37.37
2022-07-27T00:51:56.663Z,37.53
2022-07-27T00:52:32.217Z,37.81
2022-07-27T00:53:05.109Z,37.82
2022-07-27T00:53:37.562Z,37.61
2022-07-27T00:54:12.526Z,37.49
2022-07-27T00:54:45.301Z,37.77
2022-07-27T00:55:17.655Z,37.57
2022-07-27T00:55:52.682Z,37.39
2022-07-27T00:56:25.097Z,37.98
2022-07-27T00:56:57.500Z,37.64
2022-07-27T00:57:30.050Z,37.94
2022-07-27T00:58:06.539Z,37.96
2022-07-27T00:58:39.579Z,37.73
2022-07-27T00:59:13.370Z,37.61
2022-07-27T00:59:48.542Z,37.65
2022-07-27T01:00:21.456Z,37.79
2022-07-27T01:00:56.619Z,37.44
2022-07-27T01:01:31.624Z,37.44
2022-07-27T01:02:04.181Z,37.76
2022-07-27T01:02:46.388Z,37.54
2022-07-27T01:03:23.260Z,37.52
2022-07-27T01:04:02.430Z,37.64
2022-07-27T01:04:39.696Z,37.58
2022-07-27T01:05:14.659Z,37.30
2022-07-27T01:05:48.311Z,37.80
2022-07-27T01:06:24.920Z,37.68
2022-07-27T01:07:03.126Z,37.56
2022-07-27T01:07:35.826Z,37.22
2022-07-27T01:08:08.599Z,37.48
2022-07-27T01:08:43.758Z,37.26
2022-07-27T01:09:31.250Z,37.64
2022-07-27T01:10:06.095Z,37.64
2022-07-27T01:10:38.579Z,37.39
2022-07-27T01:11:13.998Z,37.58
2022-07-27T01:11:46.465Z,37.78
2022-07-27T01:12:19.727Z,37.78
2022-07-27T01:12:52.339Z,37.49
2022-07-27T01:13:28.194Z,37.48
2022-07-27T01:14:00.495Z,37.60
2022-07-27T01:14:33.036Z,37.68
2022-07-27T01:15:09.676Z,37.58
2022-07-27T01:15:42.881Z,37.72
2022-07-27T01:16:15.752Z,37.44
2022-07-27T01:16:51.955Z,37.69
2022-07-27T01:17:24.941Z,37.51
2022-07-27T01:17:57.682Z,37.42
2022-07-27T01:18:34.599Z,37.60
2022-07-27T01:19:07.946Z,37.32
2022-07-27T01:19:43.140Z,37.75
2022-07-27T01:20:18.053Z,37.48
2022-07-27T01:20:50.361Z,37.86
2022-07-27T01:21:22.692Z,37.52
2022-07-27T01:22:00.240Z,37.85
2022-07-27T01:22:32.685Z,37.65
2022-07-27T01:23:05.023Z,37.91
2022-07-27T01:23:39.951Z,37.61
2022-07-27T01:24:12.288Z,37.56
2022-07-27T01:24:45.254Z,37.44
2022-07-27T01:25:20.290Z,37.49
2022-07-27T01:25:52.707Z,37.28
2022-07-27T01:26:27.829Z,37.32
2022-07-27T01:27:01.976Z,37.51
2022-07-27T01:27:34.261Z,37.43
2022-07-27T01:28:09.198Z,37.43
2022-07-27T01:28:43.616Z,37.44
2022-07-27T01:29:18.566Z,37.19
2022-07-27T01:29:50.917Z,37.37
2022-07-27T01:30:30.598Z,37.49
2022-07-27T01:31:05.651Z,37.66
2022-07-27T01:31:38.130Z,37.73
2022-07-27T01:32:10.848Z,37.36
2022-07-27T01:32:45.784Z,37.32
2022-07-27T01:33:18.169Z,37.72
2022-07-27T01:33:50.577Z,37.15
2022-07-27T01:34:25.557Z,37.52
2022-07-27T01:34:57.909Z,37.39
2022-07-27T01:35:30.404Z,37.63
2022-07-27T01:36:05.375Z,37.63
2022-07-27T01:36:37.777Z,37.68
2022-07-27T01:37:12.745Z,37.25
2022-07-27T01:37:48.326Z,37.31
2022-07-27T01:38:21.341Z,37.64
2022-07-27T01:38:53.660Z,37.33
2022-07-27T01:39:28.571Z,37.49
2022-07-27T01:40:00.862Z,37.56
2022-07-27T01:40:34.189Z,37.39
2022-07-27T01:41:09.130Z,37.63
2022-07-27T01:41:41.494Z,37.71
2022-07-27T01:42:13.826Z,37.45
2022-07-27T01:42:46.149Z,37.47
2022-07-27T01:43:21.392Z,37.56
2022-07-27T01:43:53.878Z,37.70
2022-07-27T01:44:26.298Z,37.59
2022-07-27T01:44:58.583Z,37.97
2022-07-27T01:45:33.585Z,37.83
2022-07-27T01:46:06.010Z,37.46
2022-07-27T01:46:38.558Z,37.94
2022-07-27T01:47:14.199Z,37.39
2022-07-27T01:47:47.223Z,37.95
2022-07-27T01:48:19.538Z,37.91
2022-07-27T01:48:54.583Z,37.54
2022-07-27T01:49:27.094Z,37.87
2022-07-27T01:49:59.508Z,37.78
2022-07-27T01:50:34.826Z,37.69
2022-07-27T01:51:07.197Z,37.78
2022-07-27T01:51:39.587Z,37.78
2022-07-27T01:52:17.121Z,37.72
2022-07-27T01:52:49.488Z,37.67
2022-07-27T01:53:22.901Z,38.02
2022-07-27T01:53:57.981Z,37.75
2022-07-27T01:54:30.368Z,37.76
2022-07-27T01:55:02.757Z,37.71
2022-07-27T01:55:39.046Z,37.69
2022-07-27T01:56:11.708Z,37.90
2022-07-27T01:56:44.311Z,37.98
2022-07-27T01:57:16.664Z,37.97
2022-07-27T01:57:51.619Z,37.52
2022-07-27T01:58:23.986Z,37.80
2022-07-27T01:58:59.154Z,37.72
2022-07-27T01:59:31.479Z,37.40
2022-07-27T02:00:04.922Z,37.85
2022-07-27T02:00:47.446Z,37.58
2022-07-27T02:01:19.823Z,37.74
2022-07-27T02:01:52.284Z,38.06
2022-07-27T02:02:24.646Z,37.67
2022-07-27T02:02:59.582Z,37.62
2022-07-27T02:03:31.936Z,38.05
2022-07-27T02:04:07.014Z,37.71
2022-07-27T02:04:39.358Z,37.68
2022-07-27T02:05:12.302Z,37.65
2022-07-27T02:05:47.434Z,37.82
2022-07-27T02:06:19.854Z,38.05
2022-07-27T02:06:52.495Z,37.78
2022-07-27T02:07:30.012Z,37.36
2022-07-27T02:08:02.495Z,37.61
2022-07-27T02:08:35.215Z,37.75
2022-07-27T02:09:07.557Z,37.69
2022-07-27T02:09:42.479Z,37.71
2022-07-27T02:10:14.888Z,37.64
2022-07-27T02:11:02.253Z,37.73
2022-07-27T02:11:49.592Z,37.70
2022-07-27T02:12:36.744Z,37.73
2022-07-27T02:13:23.002Z,37.74
2022-07-27T02:13:55.726Z,37.71
2022-07-27T02:14:28.071Z,37.74
2022-07-27T02:15:05.809Z,37.55
2022-07-27T02:15:43.216Z,37.62
2022-07-27T02:16:17.584Z,37.71
2022-07-27T02:16:52.771Z,37.66
2022-07-27T02:17:25.690Z,37.54
2022-07-27T02:18:01.971Z,37.71
2022-07-27T02:18:37.011Z,37.71
2022-07-27T02:19:11.117Z,37.70
2022-07-27T02:19:43.797Z,37.63
2022-07-27T02:20:21.280Z,37.76
2022-07-27T02:20:53.578Z,37.63
2022-07-27T02:21:25.998Z,37.91
2022-07-27T02:22:00.914Z,37.80
2022-07-27T02:22:36.410Z,37.78
2022-07-27T02:23:08.823Z,38.08
2022-07-27T02:23:49.049Z,37.76
2022-07-27T02:24:21.315Z,37.88
2022-07-27T02:24:53.662Z,37.68
2022-07-27T02:25:28.569Z,37.90
2022-07-27T02:26:01.322Z,37.80
2022-07-27T02:26:33.686Z,37.95
2022-07-27T02:27:08.675Z,37.98
2022-07-27T02:27:41.880Z,37.52
2022-07-27T02:28:14.599Z,37.81
2022-07-27T02:28:49.498Z,37.75
2022-07-27T02:29:21.863Z,37.63
2022-07-27T02:29:54.226Z,37.76
2022-07-27T02:30:29.218Z,37.69
2022-07-27T02:31:02.135Z,37.54
2022-07-27T02:31:34.467Z,37.81
2022-07-27T02:32:09.730Z,37.64
2022-07-27T02:32:44.292Z,37.75
2022-07-27T02:33:17.394Z,37.79
2022-07-27T02:33:52.472Z,37.71
2022-07-27T02:34:24.882Z,37.83
2022-07-27T02:34:57.498Z,37.73
2022-07-27T02:35:29.911Z,37.97
2022-07-27T02:36:04.905Z,37.79
2022-07-27T02:36:37.209Z,37.71
2022-07-27T02:37:09.767Z,37.77
2022-07-27T02:37:47.302Z,38.13
2022-07-27T02:38:19.851Z,37.83
2022-07-27T02:38:52.126Z,37.76
2022-07-27T02:39:27.059Z,37.66
2022-07-27T02:39:59.415Z,38.12
2022-07-27T02:40:31.834Z,37.79
2022-07-27T02:41:06.764Z,37.76
2022-07-27T02:41:39.114Z,37.61
2022-07-27T02:42:11.574Z,37.73
2022-07-27T02:42:48.642Z,38.12
2022-07-27T02:43:20.996Z,37.48
2022-07-27T02:43:53.342Z,37.52
2022-07-27T02:44:28.286Z,38.19
2022-07-27T02:45:00.593Z,37.87
2022-07-27T02:45:32.921Z,37.46
2022-07-27T02:46:08.052Z,37.81
2022-07-27T02:46:40.538Z,37.73
2022-07-27T02:47:12.977Z,37.71
2022-07-27T02:47:48.472Z,37.95
2022-07-27T02:48:20.959Z,37.93
2022-07-27T02:48:53.395Z,37.87
2022-07-27T02:49:28.395Z,37.74
2022-07-27T02:50:01.618Z,38.00
2022-07-27T02:50:33.971Z,37.76
2022-07-27T02:51:09.012Z,37.95
2022-07-27T02:51:41.314Z,37.97
2022-07-27T02:52:15.494Z,37.90
2022-07-27T02:52:53.022Z,38.10
2022-07-27T02:53:25.408Z,37.71
2022-07-27T02:53:57.686Z,37.81
2022-07-27T02:54:32.678Z,38.11
2022-07-27T02:55:06.543Z,37.83
2022-07-27T02:55:39.072Z,37.79
2022-07-27T02:56:14.063Z,37.73
2022-07-27T02:56:46.409Z,37.82
2022-07-27T02:57:19.454Z,38.02
2022-07-27T02:57:54.391Z,37.81
2022-07-27T02:58:26.695Z,37.88
2022-07-27T02:58:59.074Z,37.80
2022-07-27T02:59:34.007Z,38.10
2022-07-27T03:00:08.577Z,37.56
2022-07-27T03:00:40.998Z,37.97
2022-07-27T03:01:16.255Z,37.85
2022-07-27T03:01:49.157Z,37.86
2022-07-27T03:02:21.538Z,37.88
2022-07-27T03:02:56.476Z,38.27
2022-07-27T03:03:35.949Z,37.73
2022-07-27T03:04:09.623Z,37.66
2022-07-27T03:04:44.649Z,37.76
2022-07-27T03:05:17.589Z,37.88
2022-07-27T03:05:50.150Z,37.96
2022-07-27T03:06:25.119Z,38.02
2022-07-27T03:06:57.538Z,37.93
2022-07-27T03:07:32.132Z,37.75
2022-07-27T03:08:11.119Z,37.98
2022-07-27T03:08:43.523Z,37.75
2022-07-27T03:09:16.055Z,37.68
2022-07-27T03:09:53.926Z,38.01
2022-07-27T03:10:27.832Z,38.14
2022-07-27T03:11:00.296Z,38.19
2022-07-27T03:11:35.243Z,38.14
2022-07-27T03:12:08.488Z,37.88
2022-07-27T03:12:40.879Z,38.17
2022-07-27T03:13:15.986Z,38.14
2022-07-27T03:13:48.457Z,37.78
2022-07-27T03:14:20.850Z,37.59
2022-07-27T03:14:55.770Z,38.01
2022-07-27T03:15:29.885Z,38.14
2022-07-27T03:16:02.391Z,38.14
2022-07-27T03:16:37.422Z,37.79
2022-07-27T03:17:09.763Z,38.10
2022-07-27T03:17:42.718Z,37.62
2022-07-27T03:18:22.217Z,37.59
2022-07-27T03:18:54.534Z,37.90
2022-07-27T03:19:30.191Z,37.89
2022-07-27T03:20:05.407Z,38.02
2022-07-27T03:20:41.114Z,37.83
2022-07-27T03:21:17.199Z,37.88
2022-07-27T03:21:52.873Z,37.82
2022-07-27T03:22:25.186Z,37.63
2022-07-27T03:22:57.561Z,37.91
2022-07-27T03:23:35.177Z,37.82
2022-07-27T03:24:08.230Z,38.12
2022-07-27T03:24:40.666Z,37.51
2022-07-27T03:25:18.006Z,37.95
2022-07-27T03:25:51.558Z,37.64
2022-07-27T03:26:30.707Z,37.68
2022-07-27T03:27:03.105Z,37.88
2022-07-27T03:27:35.491Z,37.89
2022-07-27T03:28:10.482Z,37.82
2022-07-27T03:28:42.820Z,38.16
2022-07-27T03:29:17.968Z,37.97
2022-07-27T03:29:53.507Z,38.22
2022-07-27T03:30:26.687Z,38.08
2022-07-27T03:31:02.508Z,37.90
2022-07-27T03:31:37.912Z,37.91
2022-07-27T03:32:12.267Z,38.19
2022-07-27T03:32:47.107Z,37.84
2022-07-27T03:33:28.130Z,38.24
2022-07-27T03:34:02.931Z,38.02
2022-07-27T03:34:35.628Z,37.73
2022-07-27T03:35:19.752Z,37.64
2022-07-27T03:35:52.754Z,37.87
2022-07-27T03:36:28.905Z,37.80
2022-07-27T03:37:06.724Z,37.67
2022-07-27T03:37:39.229Z,38.24
2022-07-27T03:38:14.278Z,38.05
2022-07-27T03:38:51.633Z,38.41
2022-07-27T03:39:26.593Z,38.29
2022-07-27T03:39:59.009Z,38.20
2022-07-27T03:40:33.747Z,37.95
2022-07-27T03:41:08.762Z,38.19
2022-07-27T03:41:44.867Z,38.13
2022-07-27T03:42:18.283Z,38.16
2022-07-27T03:42:53.238Z,38.02
2022-07-27T03:43:27.526Z,38.12
2022-07-27T03:44:01.394Z,38.14
2022-07-27T03:44:38.029Z,38.39
2022-07-27T03:45:11.223Z,38.22
2022-07-27T03:45:46.512Z,38.23
2022-07-27T03:46:18.910Z,38.05
2022-07-27T03:46:51.394Z,38.05
2022-07-27T03:47:26.417Z,38.28
2022-07-27T03:47:58.750Z,38.18
2022-07-27T03:48:31.129Z,37.91
2022-07-27T03:49:14.111Z,38.31
2022-07-27T03:49:48.044Z,38.36
2022-07-27T03:50:20.441Z,38.01
2022-07-27T03:50:55.302Z,38.35
2022-07-27T03:51:27.801Z,37.90
2022-07-27T03:52:00.096Z,38.06
2022-07-27T03:52:35.037Z,37.94
2022-07-27T03:53:07.477Z,38.32
2022-07-27T03:53:39.870Z,37.79
2022-07-27T03:54:17.985Z,38.20
2022-07-27T03:54:50.422Z,37.78
2022-07-27T03:55:26.380Z,38.19
2022-07-27T03:56:02.058Z,38.49
2022-07-27T03:56:34.422Z,38.33
2022-07-27T03:57:06.871Z,38.07
2022-07-27T03:57:44.991Z,38.07
2022-07-27T03:58:17.494Z,38.15
2022-07-27T03:58:56.076Z,37.89
2022-07-27T03:59:32.715Z,37.95
2022-07-27T04:00:08.633Z,38.10
2022-07-27T04:00:43.548Z,38.31
2022-07-27T04:01:16.259Z,38.16
2022-07-27T04:01:48.669Z,38.13
2022-07-27T04:02:23.745Z,38.41
2022-07-27T04:02:56.246Z,37.96
2022-07-27T04:03:31.222Z,38.17
2022-07-27T04:04:03.688Z,38.34
2022-07-27T04:04:36.314Z,37.94
2022-07-27T04:05:14.355Z,38.19
2022-07-27T04:05:49.943Z,37.99
2022-07-27T04:06:22.356Z,38.03
2022-07-27T04:07:00.403Z,38.27
2022-07-27T04:07:32.816Z,37.87
2022-07-27T04:08:06.402Z,38.00
2022-07-27T04:08:48.869Z,38.17
2022-07-27T04:09:25.729Z,38.46
2022-07-27T04:10:01.358Z,37.93
2022-07-27T04:10:37.734Z,38.24
2022-07-27T04:11:10.066Z,38.24
2022-07-27T04:11:50.951Z,37.89
2022-07-27T04:12:26.532Z,38.02
2022-07-27T04:12:59.286Z,38.12
2022-07-27T04:13:31.629Z,38.12
2022-07-27T04:14:06.626Z,38.03
2022-07-27T04:14:38.976Z,38.28
2022-07-27T04:15:11.734Z,38.15
2022-07-27T04:15:46.605Z,38.22
2022-07-27T04:16:19.063Z,38.18
2022-07-27T04:16:51.548Z,38.02
2022-07-27T04:17:55.051Z,38.27
2022-07-27T04:18:18.953Z,38.27
2022-07-27T04:18:53.957Z,38.05
2022-07-27T04:19:26.566Z,38.22
2022-07-27T04:19:58.886Z,38.09
2022-07-27T04:20:33.844Z,38.10
2022-07-27T04:21:06.511Z,38.16
2022-07-27T04:21:38.970Z,38.14
2022-07-27T04:22:13.877Z,38.13
2022-07-27T04:22:46.217Z,38.17
2022-07-27T04:23:21.169Z,38.13
2022-07-27T04:23:53.550Z,38.31
2022-07-27T04:24:28.591Z,38.05
2022-07-27T04:25:03.546Z,38.19
2022-07-27T04:25:36.003Z,38.36
2022-07-27T04:26:09.910Z,37.93
2022-07-27T04:26:45.011Z,38.09
2022-07-27T04:27:17.428Z,37.78
2022-07-27T04:27:49.840Z,38.10
2022-07-27T04:28:24.784Z,37.83
2022-07-27T04:28:58.580Z,38.02
2022-07-27T04:29:30.916Z,37.98
2022-07-27T04:30:10.676Z,38.03
2022-07-27T04:30:43.046Z,38.29
2022-07-27T04:31:17.329Z,38.35
2022-07-27T04:31:52.518Z,37.89
2022-07-27T04:32:25.588Z,37.90
2022-07-27T04:32:58.337Z,37.98
2022-07-27T04:33:34.615Z,38.12
2022-07-27T04:34:07.017Z,37.71
2022-07-27T04:34:39.394Z,37.90
2022-07-27T04:35:14.778Z,38.05
2022-07-27T04:35:47.631Z,38.04
2022-07-27T04:36:19.979Z,38.15
2022-07-27T04:36:54.952Z,38.34
2022-07-27T04:37:27.277Z,38.15
2022-07-27T04:37:59.974Z,37.97
2022-07-27T04:38:34.951Z,38.42
2022-07-27T04:39:07.480Z,38.12
2022-07-27T04:39:42.478Z,38.06
2022-07-27T04:40:17.399Z,37.88
2022-07-27T04:40:51.067Z,38.05
2022-07-27T04:41:29.710Z,38.27
2022-07-27T04:42:02.841Z,37.95
2022-07-27T04:42:35.236Z,38.12
2022-07-27T04:43:10.122Z,38.10
2022-07-27T04:43:42.408Z,38.12
2022-07-27T04:44:14.760Z,38.21
2022-07-27T04:44:49.683Z,38.07
2022-07-27T04:45:22.009Z,38.07
2022-07-27T04:45:54.471Z,37.97
2022-07-27T04:46:29.894Z,38.10
2022-07-27T04:47:02.357Z,38.02
2022-07-27T04:47:34.667Z,38.25
2022-07-27T04:48:10.457Z,38.29
2022-07-27T04:48:49.014Z,38.14
2022-07-27T04:49:24.571Z,38.30
2022-07-27T04:49:56.963Z,38.20
2022-07-27T04:50:30.294Z,38.17
2022-07-27T04:51:07.366Z,38.21
2022-07-27T04:51:43.096Z,38.58
2022-07-27T04:52:15.734Z,38.30
2022-07-27T04:52:50.834Z,38.39
2022-07-27T04:53:23.095Z,38.41
2022-07-27T04:53:58.390Z,38.14
2022-07-27T04:54:33.843Z,38.36
2022-07-27T04:55:10.121Z,38.28
2022-07-27T04:55:43.419Z,38.32
2022-07-27T04:56:18.643Z,38.48
2022-07-27T04:56:51.904Z,38.31
2022-07-27T04:57:24.325Z,38.10
2022-07-27T04:57:59.235Z,38.51
2022-07-27T04:58:31.666Z,38.05
2022-07-27T04:59:04.319Z,38.66
2022-07-27T04:59:39.173Z,38.02
2022-07-27T05:00:12.735Z,38.30
2022-07-27T05:00:45.323Z,38.40
2022-07-27T05:01:20.430Z,38.22
2022-07-27T05:01:52.877Z,38.44
2022-07-27T05:02:26.650Z,38.20
2022-07-27T05:03:01.569Z,38.34
2022-07-27T05:03:33.892Z,38.31
2022-07-27T05:04:09.038Z,38.43
2022-07-27T05:04:41.578Z,38.00
2022-07-27T05:05:13.893Z,38.53
2022-07-27T05:05:49.516Z,38.29
2022-07-27T05:06:22.629Z,38.65
2022-07-27T05:06:54.939Z,38.41
2022-07-27T05:07:30.141Z,38.05
2022-07-27T05:08:02.675Z,38.43
2022-07-27T05:08:37.887Z,38.62
2022-07-27T05:09:10.513Z,38.31
2022-07-27T05:09:43.517Z,38.16
2022-07-27T05:10:21.163Z,38.72
2022-07-27T05:10:53.509Z,38.54
2022-07-27T05:11:25.887Z,38.38
2022-07-27T05:12:00.810Z,38.31
2022-07-27T05:12:33.118Z,38.38
2022-07-27T05:13:07.392Z,37.97
2022-07-27T05:13:42.727Z,38.08
2022-07-27T05:14:15.107Z,37.96
2022-07-27T05:14:54.609Z,37.88
2022-07-27T05:15:27.350Z,37.82
2022-07-27T05:15:59.668Z,37.51
2022-07-27T05:16:34.754Z,37.77
2022-07-27T05:17:07.143Z,37.95
2022-07-27T05:17:39.649Z,37.85
2022-07-27T05:18:14.579Z,37.90
2022-07-27T05:18:46.896Z,37.72
2022-07-27T05:19:19.195Z,37.68
2022-07-27T05:19:54.121Z,37.51
2022-07-27T05:20:26.464Z,37.71
2022-07-27T05:20:58.890Z,37.71
2022-07-27T05:21:33.929Z,37.46
2022-07-27T05:22:06.309Z,37.66
2022-07-27T05:22:40.100Z,37.61
2022-07-27T05:23:15.901Z,37.68
2022-07-27T05:23:48.353Z,37.42
2022-07-27T05:24:20.695Z,37.58
2022-07-27T05:24:55.658Z,37.63
2022-07-27T05:25:30.607Z,37.54
2022-07-27T05:26:02.948Z,37.72
2022-07-27T05:26:37.932Z,37.72
2022-07-27T05:27:10.289Z,37.84
2022-07-27T05:27:54.261Z,37.46
2022-07-27T05:28:29.896Z,37.25
2022-07-27T05:29:02.390Z,37.39
2022-07-27T05:29:34.855Z,37.27
2022-07-27T05:30:10.670Z,37.16
2022-07-27T05:30:45.579Z,37.33
2022-07-27T05:31:18.847Z,37.34
2022-07-27T05:31:53.832Z,37.57
2022-07-27T05:32:26.196Z,37.25
2022-07-27T05:32:58.538Z,37.57
2022-07-27T05:33:33.519Z,37.33
2022-07-27T05:34:05.890Z,37.47
2022-07-27T05:34:38.209Z,37.71
2022-07-27T05:35:13.426Z,37.37
2022-07-27T05:35:45.783Z,37.18
2022-07-27T05:36:18.264Z,37.10
2022-07-27T05:36:53.262Z,37.08
2022-07-27T05:37:25.678Z,37.32
2022-07-27T05:37:58.011Z,37.42
2022-07-27T05:38:35.162Z,37.27
2022-07-27T05:39:11.814Z,37.27
2022-07-27T05:39:46.035Z,37.16
2022-07-27T05:40:21.047Z,36.96
2022-07-27T05:40:55.979Z,36.93
2022-07-27T05:41:31.067Z,37.11
2022-07-27T05:42:04.495Z,36.99
2022-07-27T05:42:36.847Z,36.53
2022-07-27T05:43:11.801Z,36.49
2022-07-27T05:43:44.711Z,36.61
2022-07-27T05:44:17.156Z,36.36
2022-07-27T05:44:56.777Z,36.54
2022-07-27T05:45:29.156Z,36.70
2022-07-27T05:46:02.004Z,36.62
2022-07-27T05:46:37.052Z,36.70
2022-07-27T05:47:11.530Z,36.19
2022-07-27T05:47:44.006Z,36.44
2022-07-27T05:48:18.899Z,36.47
2022-07-27T05:48:51.347Z,36.46
2022-07-27T05:49:24.116Z,36.42
2022-07-27T05:49:59.070Z,36.46
2022-07-27T05:50:31.399Z,36.48
2022-07-27T05:51:03.770Z,36.42
2022-07-27T05:51:39.149Z,36.19
2022-07-27T05:52:11.457Z,36.01
2022-07-27T05:52:48.701Z,36.21
2022-07-27T05:53:21.048Z,36.01
2022-07-27T05:53:54.272Z,36.64
2022-07-27T05:54:29.306Z,36.45
2022-07-27T05:55:03.988Z,35.96
2022-07-27T05:55:38.906Z,36.27
2022-07-27T05:56:32.917Z,36.13
2022-07-27T05:57:08.089Z,36.33
2022-07-27T05:57:41.389Z,36.42
2022-07-27T05:58:16.315Z,36.32
2022-07-27T05:58:50.779Z,36.33
2022-07-27T05:59:25.701Z,36.26
2022-07-27T05:59:59.140Z,36.58
2022-07-27T06:00:34.245Z,36.58
2022-07-27T06:01:06.670Z,36.56
2022-07-27T06:01:39.573Z,36.52
2022-07-27T06:02:14.652Z,36.60
2022-07-27T06:02:46.949Z,36.71
2022-07-27T06:03:19.370Z,36.49
2022-07-27T06:03:54.389Z,36.71
2022-07-27T06:04:26.893Z,36.54
2022-07-27T06:04:59.231Z,36.79
2022-07-27T06:05:34.278Z,36.69
2022-07-27T06:06:21.476Z,36.49
2022-07-27T06:07:08.769Z,36.69
2022-07-27T06:07:56.081Z,36.86
2022-07-27T06:08:28.427Z,36.73
2022-07-27T06:09:00.734Z,37.09
2022-07-27T06:09:35.700Z,36.90
2022-07-27T06:10:08.943Z,37.03
2022-07-27T06:10:44.352Z,37.03
2022-07-27T06:11:16.686Z,37.20
2022-07-27T06:11:54.205Z,36.66
2022-07-27T06:12:27.629Z,36.63
2022-07-27T06:13:07.175Z,37.13
2022-07-27T06:13:42.454Z,36.92
2022-07-27T06:14:15.050Z,36.94
2022-07-27T06:14:50.787Z,36.77
2022-07-27T06:15:24.015Z,37.12
2022-07-27T06:15:59.026Z,36.84
2022-07-27T06:16:32.301Z,36.73
2022-07-27T06:17:04.769Z,36.54
2022-07-27T06:17:40.014Z,36.65
2022-07-27T06:18:18.637Z,36.56
2022-07-27T06:18:54.576Z,36.86
2022-07-27T06:19:35.918Z,36.64
2022-07-27T06:20:10.330Z,36.77
2022-07-27T06:20:45.882Z,36.35
2022-07-27T06:21:20.037Z,36.62
2022-07-27T06:21:53.958Z,36.73
2022-07-27T06:22:29.500Z,36.63
2022-07-27T06:23:07.988Z,36.76
2022-07-27T06:23:43.476Z,36.41
2022-07-27T06:24:16.215Z,36.98
2022-07-27T06:24:48.556Z,36.63
2022-07-27T06:25:34.099Z,36.77
2022-07-27T06:26:07.670Z,36.69
2022-07-27T06:26:42.591Z,36.80
2022-07-27T06:27:17.579Z,36.76
2022-07-27T06:27:49.970Z,36.77
2022-07-27T06:28:24.929Z,36.64
2022-07-27T06:28:59.068Z,36.83
2022-07-27T06:29:31.459Z,36.83
2022-07-27T06:30:06.628Z,36.79
2022-07-27T06:30:38.984Z,36.86
2022-07-27T06:31:11.347Z,36.81
2022-07-27T06:31:46.888Z,36.62
2022-07-27T06:32:19.273Z,36.64
2022-07-27T06:32:51.660Z,36.79
2022-07-27T06:33:31.183Z,36.81
2022-07-27T06:34:04.074Z,36.84
2022-07-27T06:34:45.750Z,36.97
2022-07-27T06:35:21.342Z,36.74
2022-07-27T06:35:54.986Z,36.86
2022-07-27T06:36:29.903Z,36.79
2022-07-27T06:37:02.289Z,37.03
2022-07-27T06:37:34.990Z,36.81
2022-07-27T06:38:10.009Z,36.83
2022-07-27T06:38:42.409Z,36.86
2022-07-27T06:39:17.350Z,36.44
2022-07-27T06:39:49.721Z,36.53
2022-07-27T06:40:22.237Z,36.96
2022-07-27T06:40:57.568Z,37.05
2022-07-27T06:41:30.405Z,36.61
2022-07-27T06:42:02.709Z,36.59
2022-07-27T06:42:41.298Z,36.45
2022-07-27T06:43:13.640Z,36.96
2022-07-27T06:43:45.979Z,36.33
2022-07-27T06:44:21.402Z,36.74
2022-07-27T06:44:53.974Z,36.54
2022-07-27T06:45:26.468Z,36.80
2022-07-27T06:46:01.582Z,36.54
2022-07-27T06:46:33.956Z,36.20
2022-07-27T06:47:07.847Z,36.33
2022-07-27T06:47:49.762Z,36.63
2022-07-27T06:48:22.902Z,36.64
2022-07-27T06:48:57.880Z,36.82
2022-07-27T06:49:30.305Z,36.46
2022-07-27T06:50:02.761Z,36.15
2022-07-27T06:50:38.289Z,36.40
2022-07-27T06:51:10.621Z,36.49
2022-07-27T06:51:45.618Z,36.64
2022-07-27T06:52:17.947Z,36.29
2022-07-27T06:52:50.319Z,36.93
2022-07-27T06:53:25.719Z,36.59
2022-07-27T06:53:58.029Z,36.69
2022-07-27T06:54:33.597Z,36.75
2022-07-27T06:55:06.833Z,36.66
2022-07-27T06:55:39.277Z,36.69
2022-07-27T06:56:14.222Z,36.82
2022-07-27T06:56:46.991Z,36.44
2022-07-27T06:57:19.325Z,36.83
2022-07-27T06:57:56.871Z,36.74
2022-07-27T06:58:29.233Z,36.93
2022-07-27T06:59:01.555Z,37.00
2022-07-27T06:59:43.649Z,36.79
2022-07-27T07:00:16.485Z,36.33
2022-07-27T07:00:48.845Z,36.58
2022-07-27T07:01:23.951Z,36.61
2022-07-27T07:01:56.443Z,36.80
2022-07-27T07:02:28.771Z,36.58
2022-07-27T07:03:05.686Z,36.71
2022-07-27T07:03:38.053Z,36.61
2022-07-27T07:04:10.751Z,36.63
2022-07-27T07:04:46.139Z,36.68
2022-07-27T07:05:18.454Z,36.74
2022-07-27T07:05:53.813Z,36.66
2022-07-27T07:06:26.666Z,36.54
2022-07-27T07:07:05.267Z,36.80
2022-07-27T07:07:41.938Z,36.97
2022-07-27T07:08:15.027Z,36.81
2022-07-27T07:08:49.995Z,36.62
2022-07-27T07:09:22.307Z,36.78
2022-07-27T07:09:54.634Z,36.73
2022-07-27T07:10:31.257Z,36.55
2022-07-27T07:11:03.609Z,36.79
2022-07-27T07:11:38.567Z,36.61
2022-07-27T07:12:10.980Z,36.37
2022-07-27T07:12:43.266Z,36.65
2022-07-27T07:13:20.797Z,36.91
2022-07-27T07:13:53.550Z,36.55
2022-07-27T07:14:26.327Z,36.56
2022-07-27T07:15:01.238Z,36.84
2022-07-27T07:15:34.081Z,36.76
2022-07-27T07:16:06.613Z,36.74
2022-07-27T07:16:41.634Z,36.63
2022-07-27T07:17:14.131Z,36.67
2022-07-27T07:17:46.449Z,36.65
2022-07-27T07:18:21.499Z,36.74
2022-07-27T07:18:53.856Z,36.39
2022-07-27T07:19:26.194Z,36.60
2022-07-27T07:20:01.162Z,36.48
2022-07-27T07:20:33.603Z,36.70
2022-07-27T07:21:05.905Z,36.71